ENHV

Valan Airport

Honningsvåg, Norway
METAR ENHV 240350Z 20011KT 9999 -SHRA SCT011 BKN040 04/01 Q1026
Observed Flight Rules
May-24 @ 03:50 UTC (4 hours ago) Visual Flight Rules
Wind Visibility Clouds Conditions
200° at 11 knots 10,000+ meters
  • Scattered at 1,100' AGL
  • Broken at 4,000' AGL
  • Light Rain
Temperatures Readings
Current 4°C / 39°F
Dewpoint 1°C / 34°F
Humidity 81%
Altimeter 30.3" Hg
Pressure 1026 hPa
Elevation 14
METAR ENHV 240350Z 20011KT 9999 -SHRA SCT011 BKN040 04/01 Q1026
Observed Flight Rules
May-24 @ 03:50 UTC
(4 hours ago)
VFR
Wind Visibility
200° at 11 knots 10,000+ meters
Clouds
  • Scattered at 1,100' AGL
  • Broken at 4,000' AGL
Conditions
  • Light Rain
Temperature Dewpoint
4°C / 39°F 1°C / 34°F
Humidity Altimeter Pressure
81% 30.3" Hg 1026 hPa